Time;durP1;ratioP1;P1;durP2;ratioP2;P2;SDS_P1;SDS_P2;PMS_P1;PMS_P2;Temp;Humidity;BMP_temperature;BMP_pressure;BME280_temperature;BME280_humidity;BME280_pressure;Samples;Min_cycle;Max_cycle;Signal;HPM_P1;HPM_P2
2022/12/22 03:26:15;;;;;;;84.40;35.63;;;;;;;;;;5052348;28;20048;-74
2022/12/22 03:28:41;;;;;;;80.75;35.70;;;;;;;;;;5044601;28;20491;-74
2022/12/22 03:31:07;;;;;;;74.97;35.63;;;;;;;;;;5038856;28;20049;-74
2022/12/22 03:33:33;;;;;;;88.10;37.70;;;;;;;;;;5021732;28;20479;-74
2022/12/22 03:35:59;;;;;;;73.78;35.42;;;;;;;;;;5045218;28;20041;-74
2022/12/22 03:38:26;;;;;;;79.90;36.33;;;;;;;;;;5052699;28;20414;-74
2022/12/22 03:40:52;;;;;;;90.70;36.75;;;;;;;;;;5053243;28;20037;-74
2022/12/22 03:49:08;;;;;;;77.70;34.17;;;;;;;;;;5049811;28;20124;-74
2022/12/22 03:51:35;;;;;;;93.25;36.10;;;;;;;;;;5052231;28;20075;-74
2022/12/22 03:54:01;;;;;;;94.68;38.05;;;;;;;;;;5049381;28;20075;-74
2022/12/22 03:56:27;;;;;;;64.85;33.08;;;;;;;;;;5052787;28;20045;-74
2022/12/22 03:58:53;;;;;;;61.17;31.33;;;;;;;;;;5052461;28;20072;-75
2022/12/22 04:01:19;;;;;;;81.18;36.75;;;;;;;;;;5052241;28;20048;-74
2022/12/22 04:03:45;;;;;;;71.07;33.53;;;;;;;;;;5052951;28;20041;-75
2022/12/22 04:06:11;;;;;;;68.60;33.00;;;;;;;;;;5050756;28;20503;-75
2022/12/22 04:08:37;;;;;;;72.50;33.83;;;;;;;;;;5051921;28;20486;-75
2022/12/22 04:13:48;;;;;;;84.85;34.20;;;;;;;;;;5047413;28;20459;-75
2022/12/22 04:16:14;;;;;;;73.40;31.25;;;;;;;;;;5052582;28;20060;-74
2022/12/22 04:18:40;;;;;;;77.80;34.45;;;;;;;;;;5052624;28;20048;-74
2022/12/22 04:21:06;;;;;;;74.03;34.65;;;;;;;;;;5051614;28;20044;-74
2022/12/22 04:23:32;;;;;;;98.38;35.13;;;;;;;;;;5050696;28;20049;-75
2022/12/22 04:25:59;;;;;;;72.82;33.78;;;;;;;;;;5049096;28;20083;-74
2022/12/22 04:28:25;;;;;;;79.07;34.72;;;;;;;;;;5049678;28;20403;-74
2022/12/22 04:30:51;;;;;;;109.75;37.55;;;;;;;;;;5051725;28;20498;-74
2022/12/22 04:33:17;;;;;;;102.93;36.13;;;;;;;;;;5050270;28;20087;-74
2022/12/22 04:35:43;;;;;;;73.60;32.97;;;;;;;;;;5051242;28;20059;-74
2022/12/22 04:38:09;;;;;;;100.53;35.22;;;;;;;;;;5046545;28;20111;-74
2022/12/22 04:40:35;;;;;;;70.93;32.70;;;;;;;;;;5050388;28;20036;-74
2022/12/22 04:43:01;;;;;;;93.65;36.45;;;;;;;;;;5031793;28;20163;-74
2022/12/22 04:45:27;;;;;;;72.35;33.65;;;;;;;;;;5051023;28;20041;-75
2022/12/22 04:47:53;;;;;;;58.95;31.42;;;;;;;;;;5048362;28;20423;-74
2022/12/22 04:50:20;;;;;;;76.32;34.35;;;;;;;;;;5048636;28;20127;-74
2022/12/22 04:52:46;;;;;;;56.22;29.95;;;;;;;;;;5048517;28;20095;-74
2022/12/22 04:55:12;;;;;;;78.53;33.20;;;;;;;;;;5045893;28;20417;-74
2022/12/22 04:57:38;;;;;;;60.83;31.88;;;;;;;;;;5050125;28;20048;-74
2022/12/22 05:00:05;;;;;;;81.10;34.13;;;;;;;;;;5041262;28;20037;-74
2022/12/22 05:02:31;;;;;;;70.45;32.53;;;;;;;;;;5049475;28;20380;-74
2022/12/22 05:04:57;;;;;;;109.93;35.88;;;;;;;;;;5047971;28;20045;-74
2022/12/22 05:07:23;;;;;;;82.15;35.20;;;;;;;;;;5050536;28;20047;-73
2022/12/22 05:09:49;;;;;;;100.32;47.25;;;;;;;;;;5032917;28;20041;-75
2022/12/22 05:15:01;;;;;;;111.68;47.53;;;;;;;;;;5048939;28;20057;-74
2022/12/22 05:17:27;;;;;;;96.57;41.28;;;;;;;;;;5050464;28;20045;-74
2022/12/22 05:19:53;;;;;;;88.88;39.00;;;;;;;;;;5048566;28;20049;-74
2022/12/22 05:22:19;;;;;;;81.22;38.45;;;;;;;;;;5050850;28;20063;-75
2022/12/22 05:24:45;;;;;;;130.38;44.20;;;;;;;;;;5033361;28;20083;-74
2022/12/22 05:27:11;;;;;;;94.93;42.88;;;;;;;;;;5049055;28;20061;-74
2022/12/22 05:29:37;;;;;;;72.80;35.75;;;;;;;;;;5051881;28;20044;-74
2022/12/22 05:32:04;;;;;;;105.60;35.80;;;;;;;;;;5050418;28;20056;-75
2022/12/22 05:34:30;;;;;;;121.45;34.47;;;;;;;;;;5049510;28;20052;-74
2022/12/22 05:36:56;;;;;;;51.70;27.73;;;;;;;;;;5045386;28;20040;-74
2022/12/22 05:39:22;;;;;;;59.05;28.90;;;;;;;;;;5033454;28;20059;-75
2022/12/22 05:41:48;;;;;;;75.65;31.48;;;;;;;;;;5051279;28;20045;-75
2022/12/22 05:44:14;;;;;;;169.38;35.95;;;;;;;;;;5041835;28;20059;-75
2022/12/22 05:46:40;;;;;;;83.20;31.33;;;;;;;;;;5050590;28;20076;-74
2022/12/22 05:49:06;;;;;;;66.53;31.48;;;;;;;;;;5045865;28;20490;-74
2022/12/22 05:51:32;;;;;;;105.28;34.08;;;;;;;;;;5050835;28;20445;-74
2022/12/22 05:53:58;;;;;;;91.60;33.33;;;;;;;;;;5052972;28;20044;-74
2022/12/22 05:56:24;;;;;;;79.22;32.85;;;;;;;;;;5053510;28;20033;-74
2022/12/22 05:58:50;;;;;;;70.70;33.95;;;;;;;;;;5054086;28;20083;-74
2022/12/22 06:01:16;;;;;;;69.20;36.55;;;;;;;;;;5054471;28;20045;-75
2022/12/22 06:03:42;;;;;;;80.65;41.45;;;;;;;;;;5054235;28;20049;-74
2022/12/22 06:06:08;;;;;;;76.78;33.95;;;;;;;;;;5055047;28;20063;-74
2022/12/22 06:08:34;;;;;;;69.00;32.22;;;;;;;;;;5054140;28;20529;-75
2022/12/22 06:11:00;;;;;;;62.30;29.77;;;;;;;;;;5036952;28;20422;-75
2022/12/22 06:13:26;;;;;;;75.35;31.05;;;;;;;;;;5050165;28;20458;-74
2022/12/22 06:15:53;;;;;;;83.80;33.50;;;;;;;;;;5053688;28;20075;-74
2022/12/22 06:18:19;;;;;;;92.90;33.33;;;;;;;;;;5053672;28;20049;-74
2022/12/22 06:20:46;;;;;;;86.30;32.17;;;;;;;;;;5053537;28;20099;-75
2022/12/22 06:23:12;;;;;;;114.10;34.50;;;;;;;;;;5054626;28;20045;-75
2022/12/22 06:25:38;;;;;;;96.35;32.25;;;;;;;;;;5053848;28;20044;-74
2022/12/22 06:28:04;;;;;;;99.93;33.15;;;;;;;;;;5055215;28;20057;-74
2022/12/22 06:30:30;;;;;;;76.63;31.67;;;;;;;;;;5053321;28;20059;-74
2022/12/22 06:32:56;;;;;;;89.88;32.42;;;;;;;;;;5033949;28;20037;-75
2022/12/22 06:35:22;;;;;;;86.10;30.55;;;;;;;;;;5051868;28;20103;-74
2022/12/22 06:37:48;;;;;;;82.72;31.48;;;;;;;;;;5049652;28;20809;-74
2022/12/22 06:40:14;;;;;;;74.03;29.98;;;;;;;;;;5052388;28;20178;-75
2022/12/22 06:45:25;;;;;;;79.60;30.92;;;;;;;;;;5052619;28;20048;-74
2022/12/22 06:47:51;;;;;;;80.70;30.15;;;;;;;;;;5050702;28;20056;-74
2022/12/22 06:50:17;;;;;;;80.82;30.15;;;;;;;;;;5050200;28;20450;-74
2022/12/22 06:52:43;;;;;;;76.53;29.55;;;;;;;;;;5044687;28;20068;-74
2022/12/22 06:55:10;;;;;;;70.35;29.25;;;;;;;;;;5053496;28;20049;-75
2022/12/22 06:57:36;;;;;;;77.03;30.02;;;;;;;;;;5033427;28;20103;-74
2022/12/22 07:00:02;;;;;;;78.03;29.67;;;;;;;;;;5052743;28;20049;-74
2022/12/22 07:02:28;;;;;;;81.90;30.13;;;;;;;;;;5046496;28;20076;-74
2022/12/22 07:04:54;;;;;;;78.53;30.58;;;;;;;;;;5049083;28;20098;-74
2022/12/22 07:07:20;;;;;;;71.93;26.73;;;;;;;;;;5032681;28;20048;-74
2022/12/22 07:09:46;;;;;;;72.82;28.75;;;;;;;;;;5044198;28;20055;-74
2022/12/22 07:12:12;;;;;;;84.72;29.00;;;;;;;;;;5045293;28;20041;-74
2022/12/22 07:14:38;;;;;;;73.90;28.23;;;;;;;;;;5047222;28;20048;-74
2022/12/22 07:17:05;;;;;;;72.97;29.27;;;;;;;;;;5044094;28;20036;-73
2022/12/22 07:19:31;;;;;;;69.72;28.20;;;;;;;;;;5049837;28;20049;-73
2022/12/22 07:21:57;;;;;;;66.53;28.27;;;;;;;;;;5035668;28;20053;-73
2022/12/22 07:24:24;;;;;;;74.15;28.27;;;;;;;;;;5050023;28;20048;-73
2022/12/22 07:26:51;;;;;;;76.57;29.55;;;;;;;;;;5051897;28;20124;-73
2022/12/22 07:29:17;;;;;;;80.57;30.70;;;;;;;;;;5051250;28;20652;-73
2022/12/22 07:31:43;;;;;;;74.35;30.13;;;;;;;;;;5047436;28;20483;-73
2022/12/22 07:34:09;;;;;;;75.22;29.77;;;;;;;;;;5050537;28;20045;-73
2022/12/22 07:36:35;;;;;;;69.20;28.33;;;;;;;;;;5050748;28;20037;-73
2022/12/22 07:39:01;;;;;;;74.30;29.85;;;;;;;;;;5027320;28;20049;-73
2022/12/22 07:44:12;;;;;;;72.03;28.80;;;;;;;;;;5023611;28;20053;-73
2022/12/22 07:46:42;;;;;;;74.78;27.88;;;;;;;;;;5049634;28;20041;-73
2022/12/22 07:51:56;;;;;;;88.90;30.67;;;;;;;;;;5048725;28;20045;-73
2022/12/22 07:54:23;;;;;;;78.00;30.92;;;;;;;;;;5051071;28;20099;-73
2022/12/22 07:56:49;;;;;;;78.57;29.35;;;;;;;;;;5049024;28;20041;-73
2022/12/22 07:59:15;;;;;;;76.28;28.38;;;;;;;;;;5051333;28;20123;-73
2022/12/22 08:01:42;;;;;;;72.90;27.98;;;;;;;;;;5051342;28;20418;-73
2022/12/22 08:04:09;;;;;;;77.50;28.15;;;;;;;;;;5039711;28;20041;-73
2022/12/22 08:06:35;;;;;;;84.28;29.80;;;;;;;;;;5051254;28;20052;-73
2022/12/22 08:09:02;;;;;;;78.07;27.95;;;;;;;;;;5050912;28;20040;-73
2022/12/22 08:11:28;;;;;;;74.72;27.17;;;;;;;;;;5045863;28;20048;-73
2022/12/22 08:13:54;;;;;;;82.95;28.67;;;;;;;;;;5047638;28;20125;-73
2022/12/22 08:16:21;;;;;;;92.78;28.33;;;;;;;;;;5036533;28;20045;-73
2022/12/22 08:18:47;;;;;;;69.03;27.13;;;;;;;;;;5042690;28;20049;-72
2022/12/22 08:21:14;;;;;;;66.50;25.27;;;;;;;;;;5051912;28;20099;-73
2022/12/22 08:23:40;;;;;;;108.80;29.70;;;;;;;;;;5047089;28;20403;-73
2022/12/22 08:26:11;;;;;;;90.80;28.58;;;;;;;;;;5052174;28;20064;-73
2022/12/22 08:28:37;;;;;;;;;;;;;;;;;;5052268;28;20037;-72
2022/12/22 08:31:03;;;;;;;88.22;28.00;;;;;;;;;;5052243;28;19921;-70
2022/12/22 08:33:29;;;;;;;98.75;28.45;;;;;;;;;;5052314;28;20056;-76
2022/12/22 08:35:56;;;;;;;86.90;26.80;;;;;;;;;;5034361;28;20067;-72
2022/12/22 08:38:22;;;;;;;98.82;27.70;;;;;;;;;;5049582;28;20079;-73
2022/12/22 08:40:49;;;;;;;88.00;28.25;;;;;;;;;;5051539;28;20045;-73
2022/12/22 08:43:15;;;;;;;84.43;27.48;;;;;;;;;;5049056;28;20414;-73
2022/12/22 08:45:42;;;;;;;79.00;26.00;;;;;;;;;;5032856;28;20045;-73
2022/12/22 08:48:09;;;;;;;69.90;23.75;;;;;;;;;;5049501;28;20056;-73
2022/12/22 08:50:35;;;;;;;87.10;26.65;;;;;;;;;;5051128;28;20064;-73
2022/12/22 08:53:02;;;;;;;82.63;26.08;;;;;;;;;;5042084;28;20060;-73
2022/12/22 08:55:28;;;;;;;76.35;25.63;;;;;;;;;;5052111;28;20041;-73
2022/12/22 08:57:54;;;;;;;67.60;24.92;;;;;;;;;;5044675;28;20044;-73
2022/12/22 09:00:21;;;;;;;77.45;25.35;;;;;;;;;;5048964;28;20136;-73
2022/12/22 09:02:47;;;;;;;71.15;24.90;;;;;;;;;;5048579;28;20064;-73
2022/12/22 09:05:13;;;;;;;86.45;25.52;;;;;;;;;;5044702;28;20037;-72
2022/12/22 09:07:40;;;;;;;66.25;24.20;;;;;;;;;;5048321;28;20115;-73
2022/12/22 09:10:06;;;;;;;67.05;23.58;;;;;;;;;;5046149;28;20353;-73
2022/12/22 09:12:32;;;;;;;65.25;22.70;;;;;;;;;;5050623;28;20487;-73
2022/12/22 09:14:58;;;;;;;61.92;22.58;;;;;;;;;;5049233;28;20048;-73
2022/12/22 09:17:24;;;;;;;64.00;22.75;;;;;;;;;;5051332;28;20048;-73
2022/12/22 09:19:50;;;;;;;55.33;22.15;;;;;;;;;;5050197;28;20040;-73
2022/12/22 09:22:16;;;;;;;47.67;20.40;;;;;;;;;;5033268;28;20052;-73
2022/12/22 09:24:43;;;;;;;58.53;22.10;;;;;;;;;;5049942;28;20566;-73
2022/12/22 09:27:09;;;;;;;56.20;21.20;;;;;;;;;;5053694;28;20107;-73
2022/12/22 09:29:36;;;;;;;51.53;19.83;;;;;;;;;;5053527;28;20131;-73
2022/12/22 09:32:03;;;;;;;54.70;20.27;;;;;;;;;;5054612;28;20382;-73
2022/12/22 09:34:29;;;;;;;58.03;20.85;;;;;;;;;;5055325;28;20045;-73
2022/12/22 09:36:55;;;;;;;53.92;20.42;;;;;;;;;;5053722;28;20530;-73
2022/12/22 09:39:21;;;;;;;48.88;19.73;;;;;;;;;;5045774;28;20403;-73
2022/12/22 09:41:49;;;;;;;41.00;18.27;;;;;;;;;;5055260;28;20542;-73
2022/12/22 09:44:31;;;;;;;45.35;18.35;;;;;;;;;;5055080;28;20057;-73
2022/12/22 09:46:59;;;;;;;50.10;18.70;;;;;;;;;;5053139;28;20045;-73
2022/12/22 09:49:25;;;;;;;49.30;19.30;;;;;;;;;;5046001;28;20075;-73
2022/12/22 09:51:59;;;;;;;42.83;19.75;;;;;;;;;;5044336;28;20076;-73
2022/12/22 09:54:26;;;;;;;48.55;20.27;;;;;;;;;;5049554;28;20410;-73
2022/12/22 09:56:52;;;;;;;45.42;19.83;;;;;;;;;;5054361;28;20048;-72
2022/12/22 09:59:19;;;;;;;41.67;17.60;;;;;;;;;;5049211;28;20045;-73
2022/12/22 10:01:56;;;;;;;44.78;18.73;;;;;;;;;;5052337;28;20049;-73
2022/12/22 10:04:29;;;;;;;41.17;16.58;;;;;;;;;;5052600;28;20175;-73
2022/12/22 10:06:58;;;;;;;42.45;17.00;;;;;;;;;;5051908;28;20134;-73
2022/12/22 10:09:26;;;;;;;40.35;16.02;;;;;;;;;;5051436;28;20060;-73
2022/12/22 10:11:53;;;;;;;51.08;16.92;;;;;;;;;;5051627;28;20047;-73
2022/12/22 10:14:19;;;;;;;43.70;16.73;;;;;;;;;;5046826;28;20067;-73
2022/12/22 10:16:46;;;;;;;42.13;16.73;;;;;;;;;;5052528;28;20041;-73
2022/12/22 10:19:13;;;;;;;42.88;17.73;;;;;;;;;;5053192;28;20439;-73
2022/12/22 10:21:40;;;;;;;41.53;17.77;;;;;;;;;;5049908;28;20465;-73
2022/12/22 10:24:26;;;;;;;44.22;17.85;;;;;;;;;;5052649;28;20140;-73
2022/12/22 10:26:56;;;;;;;38.95;16.88;;;;;;;;;;5053502;28;20509;-73
2022/12/22 10:29:22;;;;;;;41.72;18.33;;;;;;;;;;5053415;28;20045;-73
2022/12/22 10:31:57;;;;;;;36.88;17.38;;;;;;;;;;5052713;28;20352;-73
2022/12/22 10:34:23;;;;;;;37.38;15.90;;;;;;;;;;5053280;28;20056;-73
2022/12/22 10:36:51;;;;;;;32.08;14.13;;;;;;;;;;5035372;28;20041;-73
2022/12/22 10:39:22;;;;;;;38.15;18.33;;;;;;;;;;5049412;28;20515;-73
2022/12/22 10:41:49;;;;;;;30.80;13.63;;;;;;;;;;5050627;28;20139;-73
2022/12/22 10:44:15;;;;;;;25.38;11.95;;;;;;;;;;5052875;28;20048;-73
2022/12/22 10:47:10;;;;;;;25.75;12.00;;;;;;;;;;5051635;28;20045;-73
2022/12/22 10:49:41;;;;;;;24.65;11.80;;;;;;;;;;5036098;28;20052;-73
2022/12/22 10:52:14;;;;;;;26.95;11.75;;;;;;;;;;5052874;28;20099;-73
2022/12/22 10:54:41;;;;;;;23.50;12.43;;;;;;;;;;5045425;28;20395;-73
2022/12/22 10:57:13;;;;;;;22.80;11.45;;;;;;;;;;5053472;28;20053;-73
2022/12/22 10:59:50;;;;;;;22.38;11.45;;;;;;;;;;5053375;28;20056;-73
2022/12/22 11:02:21;;;;;;;27.90;13.70;;;;;;;;;;5036302;28;20052;-73
2022/12/22 11:04:48;;;;;;;30.20;11.98;;;;;;;;;;5050710;28;20076;-73
2022/12/22 11:07:14;;;;;;;25.80;11.80;;;;;;;;;;5050823;28;20049;-73
2022/12/22 11:09:40;;;;;;;24.52;11.02;;;;;;;;;;5052638;28;20041;-73
2022/12/22 11:12:17;;;;;;;28.27;13.63;;;;;;;;;;5014107;28;20041;-73
2022/12/22 11:14:56;;;;;;;27.70;13.30;;;;;;;;;;5039356;28;20041;-73
2022/12/22 11:17:28;;;;;;;28.58;13.27;;;;;;;;;;5040169;28;20037;-73
2022/12/22 11:20:02;;;;;;;28.85;13.70;;;;;;;;;;5049153;28;20041;-73
2022/12/22 11:22:28;;;;;;;31.50;13.32;;;;;;;;;;5052440;28;20110;-73
2022/12/22 11:25:15;;;;;;;29.17;13.45;;;;;;;;;;5051658;28;20487;-73
2022/12/22 11:27:56;;;;;;;27.30;13.25;;;;;;;;;;5033571;28;20045;-73
2022/12/22 11:30:22;;;;;;;;;;;;;;;;;;5048337;28;20049;-73
2022/12/22 11:32:48;;;;;;;24.92;11.90;;;;;;;;;;5032109;28;20046;-73
2022/12/22 11:35:14;;;;;;;24.73;11.55;;;;;;;;;;5051914;28;20044;-73
2022/12/22 11:37:49;;;;;;;21.45;11.02;;;;;;;;;;5052768;28;20048;-73
2022/12/22 11:40:32;;;;;;;24.88;11.65;;;;;;;;;;5051772;28;20037;-73
2022/12/22 11:43:08;;;;;;;19.38;10.63;;;;;;;;;;5051710;28;20057;-73
2022/12/22 11:45:37;;;;;;;21.73;10.80;;;;;;;;;;5032699;28;20403;-73
2022/12/22 11:48:15;;;;;;;23.08;10.70;;;;;;;;;;5048977;28;20045;-73
2022/12/22 11:50:53;;;;;;;21.10;11.38;;;;;;;;;;5052060;28;20037;-78
2022/12/22 11:53:38;;;;;;;28.85;12.32;;;;;;;;;;5051006;28;20613;-74
2022/12/22 11:56:18;;;;;;;25.02;13.07;;;;;;;;;;5047349;28;20663;-72
2022/12/22 11:58:56;;;;;;;22.48;11.27;;;;;;;;;;5049536;28;20057;-76
2022/12/22 12:01:22;;;;;;;20.38;11.38;;;;;;;;;;5032366;28;20450;-75
2022/12/22 12:04:04;;;;;;;22.65;11.52;;;;;;;;;;5051931;28;20477;-78
2022/12/22 12:06:30;;;;;;;;;;;;;;;;;;5032946;28;20103;-78
2022/12/22 12:09:16;;;;;;;21.20;10.68;;;;;;;;;;5052374;28;20390;-74
2022/12/22 12:11:47;;;;;;;19.33;10.35;;;;;;;;;;5038593;28;20040;-77
2022/12/22 12:14:13;;;;;;;;;;;;;;;;;;5034990;28;20041;-73
2022/12/22 12:16:44;;;;;;;24.05;9.43;;;;;;;;;;5050363;28;19959;-74
2022/12/22 12:19:22;;;;;;;20.83;10.38;;;;;;;;;;5052715;28;20044;-74
2022/12/22 12:21:56;;;;;;;17.52;9.30;;;;;;;;;;5052263;28;20044;-77
2022/12/22 12:24:25;;;;;;;18.25;10.07;;;;;;;;;;5052344;28;20108;-72
2022/12/22 12:26:56;;;;;;;20.58;9.50;;;;;;;;;;5050241;28;20113;-72
2022/12/22 12:29:26;;;;;;;20.05;9.57;;;;;;;;;;5051158;28;20446;-74
2022/12/22 12:32:10;;;;;;;19.92;10.05;;;;;;;;;;5051806;28;20048;-72
2022/12/22 12:34:38;;;;;;;21.55;9.98;;;;;;;;;;5051864;28;20053;-72
2022/12/22 12:37:18;;;;;;;21.27;10.98;;;;;;;;;;5050112;28;20103;-73
2022/12/22 12:39:53;;;;;;;23.02;10.27;;;;;;;;;;5051991;28;20040;-73
2022/12/22 12:42:19;;;;;;;21.52;10.45;;;;;;;;;;5050571;28;20738;-73
2022/12/22 12:44:46;;;;;;;22.25;11.00;;;;;;;;;;5051679;28;20062;-73
2022/12/22 12:47:28;;;;;;;22.60;10.82;;;;;;;;;;5042471;28;20468;-74
2022/12/22 12:49:54;;;;;;;18.20;10.70;;;;;;;;;;5030631;28;20461;-73
2022/12/22 12:52:39;;;;;;;22.90;12.35;;;;;;;;;;5049837;28;20491;-73
2022/12/22 12:55:20;;;;;;;20.98;10.95;;;;;;;;;;5037857;28;20045;-73
2022/12/22 12:57:47;;;;;;;23.70;11.02;;;;;;;;;;5019417;28;20041;-73
2022/12/22 13:00:31;;;;;;;20.13;11.18;;;;;;;;;;5038277;28;20988;-73
2022/12/22 13:02:58;;;;;;;27.25;10.18;;;;;;;;;;5039640;28;20053;-73
2022/12/22 13:05:31;;;;;;;28.33;11.15;;;;;;;;;;5047947;28;20060;-73
2022/12/22 13:08:14;;;;;;;27.90;10.95;;;;;;;;;;5054380;28;20347;-74
2022/12/22 13:10:42;;;;;;;25.70;10.27;;;;;;;;;;5035758;28;20073;-73
2022/12/22 13:13:35;;;;;;;23.02;9.35;;;;;;;;;;5043841;28;20068;-73
2022/12/22 13:16:01;;;;;;;19.00;9.85;;;;;;;;;;5050437;28;20049;-73
2022/12/22 13:18:27;;;;;;;19.45;9.32;;;;;;;;;;5055538;28;20079;-73
2022/12/22 13:21:00;;;;;;;21.00;9.57;;;;;;;;;;5055655;28;20106;-73
2022/12/22 13:23:34;;;;;;;22.80;9.38;;;;;;;;;;5037644;28;20102;-73
2022/12/22 13:26:05;;;;;;;25.13;10.20;;;;;;;;;;5055128;28;20049;-74
2022/12/22 13:28:32;;;;;;;23.63;9.85;;;;;;;;;;5054940;28;20051;-73
2022/12/22 13:31:24;;;;;;;17.77;8.95;;;;;;;;;;5036143;28;20522;-73
2022/12/22 13:34:02;;;;;;;24.00;9.32;;;;;;;;;;5051351;28;20061;-73
2022/12/22 13:36:29;;;;;;;20.42;8.90;;;;;;;;;;5053217;28;20128;-73
2022/12/22 13:39:03;;;;;;;25.02;9.65;;;;;;;;;;5054740;28;20041;-73
2022/12/22 13:41:30;;;;;;;21.60;9.32;;;;;;;;;;5054673;28;20351;-73
2022/12/22 13:44:00;;;;;;;22.95;9.05;;;;;;;;;;5053074;28;20051;-73
2022/12/22 13:46:26;;;;;;;21.48;9.82;;;;;;;;;;5052668;28;20045;-73
2022/12/22 13:48:54;;;;;;;20.15;8.88;;;;;;;;;;5054483;28;20518;-73
2022/12/22 13:51:25;;;;;;;23.15;9.23;;;;;;;;;;5054316;28;20080;-73
2022/12/22 13:53:53;;;;;;;18.33;8.85;;;;;;;;;;5054532;28;20041;-74
2022/12/22 13:56:21;;;;;;;21.35;9.43;;;;;;;;;;5052518;28;20040;-73
2022/12/22 13:58:50;;;;;;;22.92;10.27;;;;;;;;;;5054130;28;20059;-74
2022/12/22 14:01:18;;;;;;;19.98;8.35;;;;;;;;;;5047894;28;20055;-74
2022/12/22 14:03:45;;;;;;;19.08;8.00;;;;;;;;;;5051553;28;20559;-74
2022/12/22 14:06:26;;;;;;;20.67;7.65;;;;;;;;;;5042441;28;20093;-74
2022/12/22 14:08:52;;;;;;;20.73;8.10;;;;;;;;;;5044837;28;20056;-74
2022/12/22 14:11:18;;;;;;;15.38;6.57;;;;;;;;;;5044322;28;20111;-74
2022/12/22 14:13:45;;;;;;;24.13;7.07;;;;;;;;;;5053299;28;20071;-74
2022/12/22 14:16:12;;;;;;;17.00;7.05;;;;;;;;;;5041088;28;20432;-74
2022/12/22 14:18:39;;;;;;;16.10;6.50;;;;;;;;;;5050026;28;20532;-74
2022/12/22 14:21:06;;;;;;;14.80;6.70;;;;;;;;;;5052010;28;20080;-74
2022/12/22 14:23:34;;;;;;;19.70;7.13;;;;;;;;;;5053185;28;20083;-74
2022/12/22 14:26:03;;;;;;;16.17;6.03;;;;;;;;;;5049510;28;20049;-74
2022/12/22 14:28:35;;;;;;;19.80;7.15;;;;;;;;;;5034560;28;20072;-74
2022/12/22 14:31:02;;;;;;;16.42;6.88;;;;;;;;;;5044807;28;20048;-74
2022/12/22 14:33:30;;;;;;;16.75;6.22;;;;;;;;;;5043358;28;20403;-74
2022/12/22 14:36:13;;;;;;;17.75;6.68;;;;;;;;;;5046899;28;20099;-74
2022/12/22 14:38:40;;;;;;;15.43;6.57;;;;;;;;;;5034451;28;20415;-74
2022/12/22 14:41:39;;;;;;;19.38;6.10;;;;;;;;;;5048414;28;20045;-73
2022/12/22 14:43:58;;;;;;;16.70;6.77;;;;;;;;;;5052578;28;20052;-74
2022/12/22 14:46:24;;;;;;;16.30;6.78;;;;;;;;;;5049898;28;20127;-74
2022/12/22 14:48:50;;;;;;;20.88;6.85;;;;;;;;;;5053784;28;20673;-74
2022/12/22 14:51:18;;;;;;;22.83;7.72;;;;;;;;;;5047642;28;20057;-74
2022/12/22 14:53:46;;;;;;;16.25;8.13;;;;;;;;;;5052122;28;20046;-74
2022/12/22 14:56:13;;;;;;;14.73;7.18;;;;;;;;;;5044358;28;20049;-74
2022/12/22 14:58:41;;;;;;;21.08;6.85;;;;;;;;;;5042030;28;20057;-73
2022/12/22 15:01:21;;;;;;;16.60;7.05;;;;;;;;;;5048633;28;20049;-74
2022/12/22 15:04:07;;;;;;;14.88;6.68;;;;;;;;;;5037896;28;20056;-73
2022/12/22 15:06:35;;;;;;;15.05;7.30;;;;;;;;;;5038016;28;20368;-74
2022/12/22 15:09:13;;;;;;;15.43;7.20;;;;;;;;;;5041604;28;20174;-74
2022/12/22 15:11:43;;;;;;;17.38;7.47;;;;;;;;;;5038146;28;20073;-74
2022/12/22 15:14:11;;;;;;;15.65;7.50;;;;;;;;;;5046107;28;20455;-74
2022/12/22 15:16:37;;;;;;;21.02;8.32;;;;;;;;;;5050284;28;20529;-74
2022/12/22 15:19:04;;;;;;;14.98;7.65;;;;;;;;;;5051672;28;20376;-74
2022/12/22 15:21:30;;;;;;;18.92;8.45;;;;;;;;;;5053265;28;20103;-74
2022/12/22 15:23:56;;;;;;;15.32;7.97;;;;;;;;;;5026735;28;20041;-74
2022/12/22 15:26:22;;;;;;;16.35;8.15;;;;;;;;;;5018400;28;20095;-74
2022/12/22 15:28:48;;;;;;;15.55;6.47;;;;;;;;;;5033706;28;20045;-73
2022/12/22 15:31:15;;;;;;;15.32;5.70;;;;;;;;;;5046560;28;20052;-74
2022/12/22 15:33:42;;;;;;;17.15;5.85;;;;;;;;;;5052751;28;20056;-73
2022/12/22 15:36:09;;;;;;;12.63;5.20;;;;;;;;;;5051391;28;20049;-73
2022/12/22 15:38:37;;;;;;;17.55;5.60;;;;;;;;;;5051500;28;20045;-74
2022/12/22 15:41:04;;;;;;;13.40;5.13;;;;;;;;;;5032883;28;20053;-74
2022/12/22 15:43:30;;;;;;;16.42;5.25;;;;;;;;;;5053263;28;20423;-73
2022/12/22 15:45:56;;;;;;;16.52;5.72;;;;;;;;;;5046935;28;21397;-74
2022/12/22 15:48:27;;;;;;;15.80;5.82;;;;;;;;;;5025337;28;20049;-73
2022/12/22 15:50:54;;;;;;;15.00;6.13;;;;;;;;;;5045340;28;20045;-74
2022/12/22 15:53:21;;;;;;;16.95;6.40;;;;;;;;;;5020222;28;20114;-74
2022/12/22 15:55:48;;;;;;;18.60;7.88;;;;;;;;;;5047177;28;20040;-74
2022/12/22 15:58:16;;;;;;;18.15;7.80;;;;;;;;;;5051689;28;20037;-74
2022/12/22 16:00:42;;;;;;;16.85;7.68;;;;;;;;;;5033545;28;20041;-73
2022/12/22 16:03:09;;;;;;;18.15;7.80;;;;;;;;;;5041973;28;20103;-73
2022/12/22 16:05:35;;;;;;;19.50;8.82;;;;;;;;;;5051299;28;20053;-73
2022/12/22 16:08:02;;;;;;;18.35;8.45;;;;;;;;;;5053503;28;20053;-73
2022/12/22 16:10:29;;;;;;;16.17;8.60;;;;;;;;;;5053251;28;20068;-74
2022/12/22 16:13:00;;;;;;;25.65;14.60;;;;;;;;;;5052608;28;20128;-74
2022/12/22 16:15:26;;;;;;;47.53;32.70;;;;;;;;;;5047108;28;20106;-73
2022/12/22 16:17:53;;;;;;;34.63;22.25;;;;;;;;;;5045492;28;20041;-73
2022/12/22 16:20:19;;;;;;;21.85;11.70;;;;;;;;;;5050911;28;20088;-73
2022/12/22 16:22:46;;;;;;;20.08;12.25;;;;;;;;;;5051061;28;20509;-73
2022/12/22 16:25:18;;;;;;;20.33;13.20;;;;;;;;;;5052564;28;20048;-73
2022/12/22 16:27:48;;;;;;;24.58;13.55;;;;;;;;;;5052346;28;20537;-73
2022/12/22 16:30:19;;;;;;;25.15;13.70;;;;;;;;;;5052457;28;20395;-73
2022/12/22 16:32:45;;;;;;;23.05;13.55;;;;;;;;;;5052331;28;20041;-73
2022/12/22 16:35:12;;;;;;;22.50;13.18;;;;;;;;;;5052877;28;20049;-73
2022/12/22 16:37:38;;;;;;;21.23;13.73;;;;;;;;;;5046877;28;20041;-73
2022/12/22 16:40:05;;;;;;;22.30;14.43;;;;;;;;;;5048969;28;20399;-74
2022/12/22 16:42:32;;;;;;;24.20;14.32;;;;;;;;;;5048384;28;20036;-73
2022/12/22 16:44:58;;;;;;;21.98;13.98;;;;;;;;;;5051161;28;20068;-73
2022/12/22 16:47:26;;;;;;;24.23;14.27;;;;;;;;;;5052578;28;20041;-73
2022/12/22 16:49:52;;;;;;;23.48;14.95;;;;;;;;;;5042375;28;20037;-73
2022/12/22 16:52:21;;;;;;;24.80;14.52;;;;;;;;;;5044944;28;20483;-73
2022/12/22 16:54:47;;;;;;;25.90;14.10;;;;;;;;;;5046790;28;20041;-73
2022/12/22 16:57:13;;;;;;;21.73;13.32;;;;;;;;;;5051964;28;20402;-73
2022/12/22 16:59:39;;;;;;;24.60;14.48;;;;;;;;;;5051260;28;20048;-73
2022/12/22 17:02:13;;;;;;;24.00;14.75;;;;;;;;;;5045870;28;20060;-73
2022/12/22 17:04:39;;;;;;;30.27;15.95;;;;;;;;;;5030004;28;20415;-73
2022/12/22 17:07:06;;;;;;;29.70;16.30;;;;;;;;;;5039634;28;20053;-73
2022/12/22 17:09:42;;;;;;;24.92;15.85;;;;;;;;;;5032779;28;20041;-73
2022/12/22 17:12:14;;;;;;;28.63;16.67;;;;;;;;;;5036290;28;20041;-73
2022/12/22 17:14:41;;;;;;;25.25;15.98;;;;;;;;;;5044494;28;20191;-73
2022/12/22 17:17:14;;;;;;;30.02;17.13;;;;;;;;;;5052444;28;20045;-73
2022/12/22 17:19:40;;;;;;;28.13;18.08;;;;;;;;;;5052258;28;20088;-73
2022/12/22 17:22:17;;;;;;;30.17;19.60;;;;;;;;;;5052724;28;20041;-75
2022/12/22 17:24:43;;;;;;;32.13;19.55;;;;;;;;;;5051881;28;20053;-74
2022/12/22 17:27:10;;;;;;;29.40;18.48;;;;;;;;;;5052246;28;20052;-74
2022/12/22 17:29:37;;;;;;;34.70;20.10;;;;;;;;;;5052443;28;20099;-74
2022/12/22 17:32:03;;;;;;;30.15;19.67;;;;;;;;;;5051538;28;20392;-74
2022/12/22 17:34:31;;;;;;;30.00;18.85;;;;;;;;;;5049624;28;20036;-74
2022/12/22 17:36:58;;;;;;;30.00;20.17;;;;;;;;;;5049628;28;20495;-74
2022/12/22 17:39:25;;;;;;;31.05;19.45;;;;;;;;;;5051654;28;20049;-74
2022/12/22 17:41:51;;;;;;;34.42;20.65;;;;;;;;;;5050994;28;20509;-74
2022/12/22 17:44:19;;;;;;;38.08;23.63;;;;;;;;;;5051783;28;20046;-74
2022/12/22 17:46:45;;;;;;;31.50;20.70;;;;;;;;;;5052210;28;20491;-74
2022/12/22 17:49:12;;;;;;;33.30;20.35;;;;;;;;;;5049688;28;20056;-74
2022/12/22 17:51:39;;;;;;;34.75;21.83;;;;;;;;;;5035733;28;20495;-75
2022/12/22 17:54:05;;;;;;;33.50;22.33;;;;;;;;;;5035758;28;20488;-75
2022/12/22 17:56:32;;;;;;;34.55;21.17;;;;;;;;;;5053575;28;20048;-74
2022/12/22 17:58:58;;;;;;;32.58;20.60;;;;;;;;;;5037564;28;20504;-74
2022/12/22 18:01:25;;;;;;;38.03;22.73;;;;;;;;;;5054118;28;20431;-74
2022/12/22 18:03:52;;;;;;;38.15;23.58;;;;;;;;;;5052315;28;20076;-75
2022/12/22 18:06:18;;;;;;;34.58;22.58;;;;;;;;;;5052816;28;20116;-74
2022/12/22 18:08:45;;;;;;;32.78;21.08;;;;;;;;;;5046905;28;20045;-75
2022/12/22 18:11:11;;;;;;;33.97;20.98;;;;;;;;;;5053851;28;20131;-74
2022/12/22 18:13:37;;;;;;;37.10;21.52;;;;;;;;;;5036526;28;20043;-74